Addison, Pennsylvania
Current Conditions -  °F | °C
As of 7:25 AM on Thursday 29 Jan 2015 (Local Time) from K2G4 Reporting Station
Overcast Overcast  
Wind Chill: 13°   Ceiling: 9000
Heat Index: 23°   Visibility: 10mi
Dew Point:   Wind: 9mph
Humidity: 39%   Direction: 150°SSE
Pressure: 30.05"   Gusts: NA
Location:  39.75°N, 79.34°W
Report Text: K2G4 291225Z AUTO 15008KT 10SM OVC090 M05/M17 A3005 RMK AO1
Loading
Personal Weather Stations






























Interactive Weather Map New forecast layout! Learn more

10-Day Weather Forecast

Advertisements
Track Severe Weather on mobile